createdAt,value
2022-11-05T00:00:38.353Z,1009
2022-11-05T00:01:38.391Z,1009.1
2022-11-05T00:02:38.339Z,1009
2022-11-05T00:03:38.434Z,1009.1
2022-11-05T00:04:38.347Z,1009
2022-11-05T00:05:38.340Z,1009
2022-11-05T00:06:38.342Z,1009.1
2022-11-05T00:07:38.347Z,1009.1
2022-11-05T00:08:38.342Z,1009.1
2022-11-05T00:09:38.343Z,1009.1
2022-11-05T00:10:38.363Z,1009.1
2022-11-05T00:11:38.375Z,1009.1
2022-11-05T00:13:38.358Z,1009.1
2022-11-05T00:14:38.369Z,1009.1
2022-11-05T00:15:48.623Z,1009.1
2022-11-05T00:16:48.623Z,1009.1
2022-11-05T00:17:48.635Z,1009.2
2022-11-05T00:18:38.351Z,1009.2
2022-11-05T00:19:38.348Z,1009.2
2022-11-05T00:20:38.343Z,1009.3
2022-11-05T00:21:38.349Z,1009.2
2022-11-05T00:22:38.378Z,1009.2
2022-11-05T00:23:38.341Z,1009.2
2022-11-05T00:24:38.341Z,1009.2
2022-11-05T00:25:38.364Z,1009.2
2022-11-05T00:26:38.348Z,1009.2
2022-11-05T00:27:38.349Z,1009.2
2022-11-05T00:28:38.353Z,1009.2
2022-11-05T00:29:38.348Z,1009.2
2022-11-05T00:30:38.344Z,1009.3
2022-11-05T00:31:38.354Z,1009.2
2022-11-05T00:32:38.358Z,1009.2
2022-11-05T00:33:38.363Z,1009.3
2022-11-05T00:34:38.343Z,1009.3
2022-11-05T00:35:38.346Z,1009.3
2022-11-05T00:36:38.354Z,1009.3
2022-11-05T00:37:38.349Z,1009.4
2022-11-05T00:38:38.338Z,1009.4
2022-11-05T00:39:38.348Z,1009.3
2022-11-05T00:40:38.345Z,1009.4
2022-11-05T00:41:38.346Z,1009.4
2022-11-05T00:42:38.350Z,1009.4
2022-11-05T00:43:38.344Z,1009.4
2022-11-05T00:44:38.352Z,1009.4
2022-11-05T00:45:38.357Z,1009.4
2022-11-05T00:46:38.348Z,1009.4
2022-11-05T00:47:38.349Z,1009.4
2022-11-05T00:48:38.354Z,1009.4
2022-11-05T00:49:38.377Z,1009.4
2022-11-05T00:50:38.352Z,1009.4
2022-11-05T00:51:38.349Z,1009.4
2022-11-05T00:52:38.343Z,1009.4
2022-11-05T00:53:38.349Z,1009.4
2022-11-05T00:54:38.341Z,1009.4
2022-11-05T00:55:38.384Z,1009.5
2022-11-05T00:56:38.384Z,1009.4
2022-11-05T00:57:38.352Z,1009.5
2022-11-05T00:58:38.349Z,1009.4
2022-11-05T00:59:38.349Z,1009.4
2022-11-05T01:00:38.351Z,1009.5
2022-11-05T01:01:38.493Z,1009.5
2022-11-05T01:02:38.519Z,1009.5
2022-11-05T01:03:38.351Z,1009.5
2022-11-05T01:04:38.353Z,1009.6
2022-11-05T01:05:38.341Z,1009.6
2022-11-05T01:06:38.344Z,1009.6
2022-11-05T01:07:38.362Z,1009.6
2022-11-05T01:09:38.372Z,1009.6
2022-11-05T01:10:38.353Z,1009.6
2022-11-05T01:11:38.350Z,1009.6
2022-11-05T01:12:38.358Z,1009.6
2022-11-05T01:13:38.349Z,1009.6
2022-11-05T01:14:38.360Z,1009.6
2022-11-05T01:15:38.353Z,1009.6
2022-11-05T01:16:38.360Z,1009.6
2022-11-05T01:17:38.352Z,1009.6
2022-11-05T01:18:38.358Z,1009.6
2022-11-05T01:19:38.351Z,1009.6
2022-11-05T01:21:38.350Z,1009.6
2022-11-05T01:22:38.346Z,1009.7
2022-11-05T01:23:38.348Z,1009.8
2022-11-05T01:24:38.369Z,1009.7
2022-11-05T01:25:38.350Z,1009.7
2022-11-05T01:26:38.358Z,1009.8
2022-11-05T01:27:38.548Z,1009.7
2022-11-05T01:28:38.453Z,1009.8
2022-11-05T01:29:38.347Z,1009.7
2022-11-05T01:30:38.360Z,1009.7
2022-11-05T01:31:38.353Z,1009.8
2022-11-05T01:32:38.354Z,1009.8
2022-11-05T01:33:38.350Z,1009.8
2022-11-05T01:34:38.360Z,1009.7
2022-11-05T01:35:38.356Z,1009.7
2022-11-05T01:36:38.354Z,1009.7
2022-11-05T01:37:38.350Z,1009.7
2022-11-05T01:38:38.403Z,1009.7
2022-11-05T01:39:38.353Z,1009.8
2022-11-05T01:40:38.370Z,1009.8
2022-11-05T01:41:38.386Z,1009.8
2022-11-05T01:42:38.374Z,1009.8
2022-11-05T01:43:38.360Z,1009.8
2022-11-05T01:44:38.353Z,1009.8
2022-11-05T01:45:38.351Z,1009.8
2022-11-05T01:46:38.363Z,1009.8
2022-11-05T01:47:38.351Z,1009.8
2022-11-05T01:48:38.392Z,1009.8
2022-11-05T01:49:38.362Z,1009.8
2022-11-05T01:50:38.369Z,1009.8
2022-11-05T01:51:38.353Z,1009.8
2022-11-05T01:52:38.357Z,1009.8
2022-11-05T01:53:38.354Z,1009.8
2022-11-05T01:54:38.355Z,1009.8
2022-11-05T01:55:38.357Z,1009.8
2022-11-05T01:56:38.359Z,1009.8
2022-11-05T01:57:38.357Z,1009.8
2022-11-05T01:58:38.379Z,1009.8
2022-11-05T01:59:38.357Z,1009.8
2022-11-05T02:00:38.351Z,1009.8
2022-11-05T02:01:38.546Z,1009.9
2022-11-05T02:02:38.457Z,1009.9
2022-11-05T02:03:38.354Z,1009.9
2022-11-05T02:04:38.356Z,1009.9
2022-11-05T02:05:38.361Z,1009.9
2022-11-05T02:06:38.358Z,1009.9
2022-11-05T02:07:38.361Z,1009.8
2022-11-05T02:08:38.350Z,1009.9
2022-11-05T02:09:38.360Z,1009.9
2022-11-05T02:10:38.357Z,1009.9
2022-11-05T02:11:38.358Z,1009.9
2022-11-05T02:12:38.355Z,1009.9
2022-11-05T02:13:38.355Z,1009.9
2022-11-05T02:14:38.364Z,1009.9
2022-11-05T02:15:38.358Z,1009.9
2022-11-05T02:16:38.360Z,1009.9
2022-11-05T02:17:38.360Z,1010
2022-11-05T02:19:38.371Z,1010
2022-11-05T02:20:38.357Z,1010
2022-11-05T02:21:38.361Z,1010
2022-11-05T02:23:38.349Z,1010
2022-11-05T02:24:38.358Z,1010
2022-11-05T02:25:38.365Z,1010.1
2022-11-05T02:26:38.358Z,1010.1
2022-11-05T02:27:38.361Z,1010.1
2022-11-05T02:28:38.359Z,1010.1
2022-11-05T02:29:38.380Z,1010.1
2022-11-05T02:30:38.362Z,1010.1
2022-11-05T02:31:38.362Z,1010.2
2022-11-05T02:32:38.468Z,1010.1
2022-11-05T02:33:38.360Z,1010.2
2022-11-05T02:34:38.357Z,1010.2
2022-11-05T02:35:38.362Z,1010.1
2022-11-05T02:36:38.411Z,1010.1
2022-11-05T02:37:38.367Z,1010.1
2022-11-05T02:39:38.350Z,1010.1
2022-11-05T02:40:38.356Z,1010.1
2022-11-05T02:41:38.359Z,1010.1
2022-11-05T02:42:38.352Z,1010.1
2022-11-05T02:44:38.362Z,1010.1
2022-11-05T02:45:38.385Z,1010.1
2022-11-05T02:46:38.356Z,1010.1
2022-11-05T02:47:38.363Z,1010.1
2022-11-05T02:48:38.378Z,1010.1
2022-11-05T02:49:38.371Z,1010.1
2022-11-05T02:50:38.364Z,1010.1
2022-11-05T02:51:38.427Z,1010.1
2022-11-05T02:52:38.358Z,1010.1
2022-11-05T02:53:38.353Z,1010.1
2022-11-05T02:54:38.360Z,1010.1
2022-11-05T02:55:38.358Z,1010.1
2022-11-05T02:56:38.363Z,1010.1
2022-11-05T02:57:38.360Z,1010.1
2022-11-05T02:58:38.355Z,1010.1
2022-11-05T02:59:38.369Z,1010.1
2022-11-05T03:00:38.360Z,1010.1
2022-11-05T03:01:38.487Z,1010.1
2022-11-05T03:02:38.535Z,1010.1
2022-11-05T03:03:38.368Z,1010.1
2022-11-05T03:04:38.366Z,1010.1
2022-11-05T03:05:38.362Z,1010.1
2022-11-05T03:06:38.357Z,1010.1
2022-11-05T03:07:38.355Z,1010.1
2022-11-05T03:08:38.364Z,1010.1
2022-11-05T03:09:38.364Z,1010.1
2022-11-05T03:10:38.357Z,1010.1
2022-11-05T03:11:38.387Z,1010.1
2022-11-05T03:12:38.355Z,1010.1
2022-11-05T03:13:38.366Z,1010
2022-11-05T03:14:38.363Z,1010
2022-11-05T03:16:38.390Z,1010.1
2022-11-05T03:17:38.356Z,1010.1
2022-11-05T03:18:38.368Z,1010.1
2022-11-05T03:19:38.373Z,1010.1
2022-11-05T03:20:38.357Z,1010
2022-11-05T03:21:38.362Z,1010
2022-11-05T03:22:38.360Z,1010
2022-11-05T03:23:38.362Z,1010
2022-11-05T03:24:38.365Z,1010
2022-11-05T03:25:38.358Z,1010
2022-11-05T03:26:38.354Z,1010.1
2022-11-05T03:27:38.358Z,1010.1
2022-11-05T03:28:38.363Z,1010
2022-11-05T03:29:38.369Z,1010.1
2022-11-05T03:30:38.364Z,1010.1
2022-11-05T03:31:38.376Z,1010.1
2022-11-05T03:32:38.356Z,1010.1
2022-11-05T03:33:38.359Z,1010.1
2022-11-05T03:34:38.367Z,1010.1
2022-11-05T03:35:38.364Z,1010.1
2022-11-05T03:36:38.359Z,1010.1
2022-11-05T03:37:38.382Z,1010.1
2022-11-05T03:38:38.387Z,1010.2
2022-11-05T03:39:38.374Z,1010.2
2022-11-05T03:40:38.353Z,1010.2
2022-11-05T03:41:38.361Z,1010.2
2022-11-05T03:42:38.360Z,1010.2
2022-11-05T03:43:38.359Z,1010.2
2022-11-05T03:44:38.366Z,1010.2
2022-11-05T03:45:38.366Z,1010.2
2022-11-05T03:46:38.367Z,1010.2
2022-11-05T03:47:38.391Z,1010.3
2022-11-05T03:48:38.487Z,1010.2
2022-11-05T03:49:38.363Z,1010.2
2022-11-05T03:50:41.248Z,1010.2
2022-11-05T03:51:38.369Z,1010.3
2022-11-05T03:52:38.366Z,1010.3
2022-11-05T03:53:38.367Z,1010.4
2022-11-05T03:54:38.362Z,1010.4
2022-11-05T03:55:38.355Z,1010.4
2022-11-05T03:56:38.360Z,1010.4
2022-11-05T03:57:38.362Z,1010.4
2022-11-05T03:58:38.366Z,1010.4
2022-11-05T03:59:38.360Z,1010.4
2022-11-05T04:00:38.361Z,1010.4
2022-11-05T04:01:38.486Z,1010.4
2022-11-05T04:02:38.561Z,1010.4
2022-11-05T04:03:38.355Z,1010.4
2022-11-05T04:04:38.360Z,1010.4
2022-11-05T04:05:38.358Z,1010.4
2022-11-05T04:06:38.366Z,1010.4
2022-11-05T04:07:38.366Z,1010.4
2022-11-05T04:08:38.357Z,1010.4
2022-11-05T04:09:38.366Z,1010.4
2022-11-05T04:10:38.359Z,1010.5
2022-11-05T04:11:38.365Z,1010.4
2022-11-05T04:12:38.357Z,1010.5
2022-11-05T04:13:38.366Z,1010.5
2022-11-05T04:14:38.369Z,1010.5
2022-11-05T04:15:38.366Z,1010.5
2022-11-05T04:16:38.359Z,1010.5
2022-11-05T04:17:38.368Z,1010.5
2022-11-05T04:19:38.368Z,1010.5
2022-11-05T04:20:38.372Z,1010.5
2022-11-05T04:21:38.357Z,1010.5
2022-11-05T04:22:38.374Z,1010.5
2022-11-05T04:23:38.362Z,1010.5
2022-11-05T04:24:38.360Z,1010.6
2022-11-05T04:25:38.361Z,1010.6
2022-11-05T04:26:38.363Z,1010.6
2022-11-05T04:27:38.360Z,1010.6
2022-11-05T04:28:38.366Z,1010.6
2022-11-05T04:29:38.372Z,1010.6
2022-11-05T04:30:38.366Z,1010.6
2022-11-05T04:31:38.355Z,1010.6
2022-11-05T04:32:38.365Z,1010.6
2022-11-05T04:33:38.368Z,1010.6
2022-11-05T04:34:38.366Z,1010.6
2022-11-05T04:35:38.358Z,1010.6
2022-11-05T04:36:38.376Z,1010.6
2022-11-05T04:37:38.360Z,1010.6
2022-11-05T04:38:38.356Z,1010.6
2022-11-05T04:39:38.382Z,1010.6
2022-11-05T04:40:38.357Z,1010.6
2022-11-05T04:41:38.358Z,1010.6
2022-11-05T04:42:38.366Z,1010.6
2022-11-05T04:43:38.366Z,1010.6
2022-11-05T04:44:38.366Z,1010.6
2022-11-05T04:45:38.363Z,1010.7
2022-11-05T04:46:38.360Z,1010.6
2022-11-05T04:47:38.827Z,1010.7
2022-11-05T04:48:38.360Z,1010.7
2022-11-05T04:49:38.391Z,1010.7
2022-11-05T04:50:38.369Z,1010.7
2022-11-05T04:51:38.385Z,1010.7
2022-11-05T04:52:38.364Z,1010.7
2022-11-05T04:53:38.373Z,1010.7
2022-11-05T04:54:38.373Z,1010.7
2022-11-05T04:55:38.369Z,1010.7
2022-11-05T04:56:38.360Z,1010.6
2022-11-05T04:57:38.367Z,1010.6
2022-11-05T04:58:38.357Z,1010.6
2022-11-05T04:59:38.368Z,1010.7
2022-11-05T05:00:38.433Z,1010.6
2022-11-05T05:01:38.521Z,1010.6
2022-11-05T05:02:38.366Z,1010.7
2022-11-05T05:03:38.365Z,1010.6
2022-11-05T05:04:38.377Z,1010.6
2022-11-05T05:05:38.362Z,1010.7
2022-11-05T05:06:38.366Z,1010.7
2022-11-05T05:07:38.367Z,1010.7
2022-11-05T05:08:38.364Z,1010.7
2022-11-05T05:09:38.365Z,1010.7
2022-11-05T05:10:38.372Z,1010.7
2022-11-05T05:12:38.362Z,1010.7
2022-11-05T05:13:38.356Z,1010.7
2022-11-05T05:14:38.365Z,1010.7
2022-11-05T05:15:38.363Z,1010.8
2022-11-05T05:16:38.366Z,1010.8
2022-11-05T05:17:38.360Z,1010.8
2022-11-05T05:18:43.529Z,1010.8
2022-11-05T05:19:38.370Z,1010.8
2022-11-05T05:20:38.392Z,1010.7
2022-11-05T05:21:38.360Z,1010.8
2022-11-05T05:22:38.367Z,1010.8
2022-11-05T05:23:38.363Z,1010.8
2022-11-05T05:24:38.368Z,1010.8
2022-11-05T05:25:38.365Z,1010.8
2022-11-05T05:26:38.361Z,1010.8
2022-11-05T05:27:38.364Z,1010.8
2022-11-05T05:28:38.375Z,1010.8
2022-11-05T05:29:38.362Z,1010.8
2022-11-05T05:30:38.365Z,1010.7
2022-11-05T05:31:38.373Z,1010.8
2022-11-05T05:33:38.365Z,1010.8
2022-11-05T05:34:38.372Z,1010.8
2022-11-05T05:35:38.371Z,1010.8
2022-11-05T05:36:38.376Z,1010.8
2022-11-05T05:37:38.359Z,1010.8
2022-11-05T05:38:38.363Z,1010.8
2022-11-05T05:39:38.359Z,1010.9
2022-11-05T05:40:38.360Z,1010.9
2022-11-05T05:41:38.373Z,1010.9
2022-11-05T05:42:42.866Z,1010.9
2022-11-05T05:43:38.363Z,1010.9
2022-11-05T05:44:38.371Z,1010.9
2022-11-05T05:45:38.361Z,1010.9
2022-11-05T05:46:38.369Z,1010.9
2022-11-05T05:47:38.363Z,1010.9
2022-11-05T05:48:38.366Z,1010.9
2022-11-05T05:49:38.369Z,1010.9
2022-11-05T05:50:38.365Z,1010.9
2022-11-05T05:51:38.461Z,1010.9
2022-11-05T05:52:38.363Z,1010.9
2022-11-05T05:53:38.373Z,1010.9
2022-11-05T05:54:42.499Z,1010.9
2022-11-05T05:55:38.362Z,1011
2022-11-05T05:56:38.362Z,1011
2022-11-05T05:57:38.384Z,1011
2022-11-05T05:58:38.366Z,1011
2022-11-05T05:59:38.376Z,1011
2022-11-05T06:00:38.374Z,1011.1
2022-11-05T06:01:38.541Z,1011.1
2022-11-05T06:02:38.453Z,1011.1
2022-11-05T06:03:38.364Z,1011.1
2022-11-05T06:05:38.362Z,1011.1
2022-11-05T06:06:38.368Z,1011.1
2022-11-05T06:07:38.368Z,1011.1
2022-11-05T06:08:38.360Z,1011.1
2022-11-05T06:09:38.370Z,1011.1
2022-11-05T06:10:38.466Z,1011.1
2022-11-05T06:11:38.365Z,1011.1
2022-11-05T06:13:38.367Z,1011.2
2022-11-05T06:14:38.364Z,1011.2
2022-11-05T06:15:38.369Z,1011.2
2022-11-05T06:16:38.360Z,1011.2
2022-11-05T06:17:38.373Z,1011.3
2022-11-05T06:18:38.376Z,1011.3
2022-11-05T06:19:38.367Z,1011.3
2022-11-05T06:21:38.360Z,1011.3
2022-11-05T06:22:38.523Z,1011.3
2022-11-05T06:23:38.367Z,1011.3
2022-11-05T06:24:38.363Z,1011.3
2022-11-05T06:26:38.372Z,1011.3
2022-11-05T06:27:38.363Z,1011.3
2022-11-05T06:28:38.366Z,1011.3
2022-11-05T06:29:38.370Z,1011.4
2022-11-05T06:30:38.367Z,1011.4
2022-11-05T06:31:38.389Z,1011.4
2022-11-05T06:32:38.357Z,1011.4
2022-11-05T06:33:38.377Z,1011.4
2022-11-05T06:34:38.359Z,1011.5
2022-11-05T06:35:38.361Z,1011.4
2022-11-05T06:36:38.368Z,1011.5
2022-11-05T06:37:38.370Z,1011.4
2022-11-05T06:38:38.366Z,1011.5
2022-11-05T06:40:38.358Z,1011.6
2022-11-05T06:42:04.122Z,1011.6
2022-11-05T06:42:38.360Z,1011.5
2022-11-05T06:43:38.362Z,1011.5
2022-11-05T06:44:38.367Z,1011.6
2022-11-05T06:45:38.363Z,1011.6
2022-11-05T06:47:38.409Z,1011.6
2022-11-05T06:48:38.361Z,1011.7
2022-11-05T06:49:38.367Z,1011.7
2022-11-05T06:50:38.362Z,1011.7
2022-11-05T06:51:38.364Z,1011.8
2022-11-05T06:52:41.058Z,1011.8
2022-11-05T06:53:38.391Z,1011.8
2022-11-05T06:54:38.368Z,1011.8
2022-11-05T06:55:38.367Z,1011.8
2022-11-05T06:56:38.361Z,1011.8
2022-11-05T06:57:38.364Z,1011.8
2022-11-05T06:58:38.367Z,1011.8
2022-11-05T06:59:38.396Z,1011.8
2022-11-05T07:00:38.437Z,1011.8
2022-11-05T07:01:38.524Z,1011.8
2022-11-05T07:02:38.363Z,1011.8
2022-11-05T07:03:38.370Z,1011.8
2022-11-05T07:04:38.363Z,1011.8
2022-11-05T07:05:38.366Z,1011.8
2022-11-05T07:06:38.377Z,1011.9
2022-11-05T07:07:38.377Z,1011.9
2022-11-05T07:08:38.356Z,1011.9
2022-11-05T07:09:38.370Z,1011.9
2022-11-05T07:10:38.362Z,1011.9
2022-11-05T07:11:38.360Z,1011.8
2022-11-05T07:12:38.368Z,1011.9
2022-11-05T07:13:38.367Z,1011.8
2022-11-05T07:14:38.371Z,1011.8
2022-11-05T07:15:38.361Z,1011.8
2022-11-05T07:16:38.362Z,1011.8
2022-11-05T07:17:38.356Z,1011.8
2022-11-05T07:18:38.367Z,1011.8
2022-11-05T07:19:38.752Z,1011.8
2022-11-05T07:20:38.362Z,1011.8
2022-11-05T07:21:38.371Z,1011.8
2022-11-05T07:22:38.375Z,1011.8
2022-11-05T07:23:38.364Z,1011.8
2022-11-05T07:24:38.411Z,1011.8
2022-11-05T07:25:38.367Z,1011.9
2022-11-05T07:26:38.360Z,1011.9
2022-11-05T07:27:38.939Z,1011.9
2022-11-05T07:28:38.371Z,1011.9
2022-11-05T07:29:38.363Z,1011.9
2022-11-05T07:30:38.378Z,1012
2022-11-05T07:31:38.367Z,1012
2022-11-05T07:33:38.369Z,1012
2022-11-05T07:34:38.404Z,1012
2022-11-05T07:35:38.398Z,1012
2022-11-05T07:36:38.360Z,1012
2022-11-05T07:37:38.363Z,1012.1
2022-11-05T07:38:38.392Z,1012.1
2022-11-05T07:39:38.368Z,1012.1
2022-11-05T07:40:38.370Z,1012.1
2022-11-05T07:41:38.360Z,1012.1
2022-11-05T07:42:38.373Z,1012
2022-11-05T07:43:38.363Z,1012.1
2022-11-05T07:44:38.367Z,1012.1
2022-11-05T07:45:38.370Z,1012.1
2022-11-05T07:46:38.364Z,1012
2022-11-05T07:47:38.362Z,1012.1
2022-11-05T07:48:38.363Z,1012
2022-11-05T07:49:38.385Z,1012
2022-11-05T07:50:38.375Z,1012.1
2022-11-05T07:51:38.369Z,1012.1
2022-11-05T07:52:38.373Z,1012.1
2022-11-05T07:54:38.375Z,1012.1
2022-11-05T07:55:38.474Z,1012.2
2022-11-05T07:56:38.379Z,1012.2
2022-11-05T07:57:38.366Z,1012.2
2022-11-05T07:58:38.371Z,1012.2
2022-11-05T07:59:38.371Z,1012.1
2022-11-05T08:00:38.612Z,1012.2
2022-11-05T08:01:38.540Z,1012.2
2022-11-05T08:02:38.599Z,1012.1
2022-11-05T08:03:38.454Z,1012.2
2022-11-05T08:04:38.368Z,1012.2
2022-11-05T08:05:38.362Z,1012.2
2022-11-05T08:06:38.370Z,1012.2
2022-11-05T08:07:38.450Z,1012.2
2022-11-05T08:08:38.367Z,1012.2
2022-11-05T08:09:38.371Z,1012.2
2022-11-05T08:10:38.398Z,1012.2
2022-11-05T08:11:38.369Z,1012.2
2022-11-05T08:12:38.374Z,1012.3
2022-11-05T08:13:38.370Z,1012.3
2022-11-05T08:15:38.372Z,1012.2
2022-11-05T08:16:38.370Z,1012.2
2022-11-05T08:17:38.370Z,1012.2
2022-11-05T08:18:38.363Z,1012.3
2022-11-05T08:19:38.365Z,1012.3
2022-11-05T08:22:38.364Z,1012.1
2022-11-05T08:23:38.364Z,1012.1
2022-11-05T08:24:38.369Z,1012.1
2022-11-05T08:25:38.367Z,1012.2
2022-11-05T08:26:38.466Z,1012.1
2022-11-05T08:27:38.362Z,1012.1
2022-11-05T08:28:38.365Z,1012.1
2022-11-05T08:29:38.380Z,1012.2
2022-11-05T08:30:38.367Z,1012.1
2022-11-05T08:31:38.361Z,1012.2
2022-11-05T08:32:38.366Z,1012.2
2022-11-05T08:33:38.375Z,1012.2
2022-11-05T08:34:38.368Z,1012.2
2022-11-05T08:35:38.489Z,1012.2
2022-11-05T08:36:38.367Z,1012.2
2022-11-05T08:37:38.371Z,1012.3
2022-11-05T08:38:38.370Z,1012.2
2022-11-05T08:39:38.373Z,1012.2
2022-11-05T08:40:38.377Z,1012.3
2022-11-05T08:41:38.381Z,1012.3
2022-11-05T08:43:38.361Z,1012.3
2022-11-05T08:44:38.402Z,1012.3
2022-11-05T08:45:38.650Z,1012.3
2022-11-05T08:46:41.606Z,1012.3
2022-11-05T08:47:39.382Z,1012.3
2022-11-05T08:48:38.377Z,1012.3
2022-11-05T08:49:38.372Z,1012.4
2022-11-05T08:50:38.392Z,1012.3
2022-11-05T08:51:38.377Z,1012.3
2022-11-05T08:52:38.371Z,1012.3
2022-11-05T08:53:38.378Z,1012.3
2022-11-05T08:54:38.370Z,1012.4
2022-11-05T08:55:38.389Z,1012.4
2022-11-05T08:56:38.373Z,1012.3
2022-11-05T08:57:38.407Z,1012.4
2022-11-05T08:58:38.368Z,1012.4
2022-11-05T09:00:38.372Z,1012.4
2022-11-05T09:01:38.509Z,1012.4
2022-11-05T09:02:38.439Z,1012.4
2022-11-05T09:03:38.373Z,1012.4
2022-11-05T09:04:38.378Z,1012.4
2022-11-05T09:05:38.374Z,1012.4
2022-11-05T09:06:38.394Z,1012.5
2022-11-05T09:07:38.373Z,1012.4
2022-11-05T09:08:38.384Z,1012.4
2022-11-05T09:09:38.368Z,1012.4
2022-11-05T09:10:38.384Z,1012.4
2022-11-05T09:12:09.991Z,1012.4
2022-11-05T09:12:38.369Z,1012.4
2022-11-05T09:13:38.396Z,1012.5
2022-11-05T09:15:38.375Z,1012.5
2022-11-05T09:16:38.369Z,1012.4
2022-11-05T09:17:38.377Z,1012.6
2022-11-05T09:18:38.370Z,1012.6
2022-11-05T09:19:40.089Z,1012.6
2022-11-05T09:20:38.375Z,1012.6
2022-11-05T09:21:38.374Z,1012.6
2022-11-05T09:22:43.124Z,1012.6
2022-11-05T09:23:38.363Z,1012.5
2022-11-05T09:24:38.374Z,1012.6
2022-11-05T09:25:38.398Z,1012.6
2022-11-05T09:26:38.375Z,1012.6
2022-11-05T09:27:38.392Z,1012.5
2022-11-05T09:28:38.394Z,1012.6
2022-11-05T09:29:38.376Z,1012.6
2022-11-05T09:30:38.378Z,1012.6
2022-11-05T09:31:38.373Z,1012.6
2022-11-05T09:32:38.379Z,1012.6
2022-11-05T09:33:38.371Z,1012.6
2022-11-05T09:34:38.376Z,1012.5
2022-11-05T09:36:38.386Z,1012.6
2022-11-05T09:37:38.375Z,1012.6
2022-11-05T09:39:38.373Z,1012.6
2022-11-05T09:40:38.368Z,1012.6
2022-11-05T09:41:38.371Z,1012.6
2022-11-05T09:42:38.371Z,1012.5
2022-11-05T09:43:38.381Z,1012.6
2022-11-05T09:44:38.371Z,1012.6
2022-11-05T09:46:38.391Z,1012.6
2022-11-05T09:47:38.374Z,1012.6
2022-11-05T09:48:38.392Z,1012.6
2022-11-05T09:49:38.376Z,1012.6
2022-11-05T09:50:38.378Z,1012.6
2022-11-05T09:51:38.380Z,1012.6
2022-11-05T09:52:38.373Z,1012.6
2022-11-05T09:53:38.373Z,1012.6
2022-11-05T09:54:38.390Z,1012.6
2022-11-05T09:55:38.373Z,1012.6
2022-11-05T09:57:38.366Z,1012.6
2022-11-05T09:58:38.373Z,1012.7
2022-11-05T09:59:38.401Z,1012.7
2022-11-05T10:00:38.379Z,1012.6
2022-11-05T10:01:38.662Z,1012.6
2022-11-05T10:02:38.483Z,1012.6
2022-11-05T10:03:38.369Z,1012.6
2022-11-05T10:04:38.384Z,1012.6
2022-11-05T10:05:38.470Z,1012.6
2022-11-05T10:06:38.379Z,1012.7
2022-11-05T10:07:38.373Z,1012.7
2022-11-05T10:08:38.371Z,1012.7
2022-11-05T10:09:38.378Z,1012.7
2022-11-05T10:10:41.044Z,1012.6
2022-11-05T10:11:38.381Z,1012.6
2022-11-05T10:12:38.382Z,1012.6
2022-11-05T10:13:38.389Z,1012.7
2022-11-05T10:14:38.379Z,1012.6
2022-11-05T10:15:38.389Z,1012.6
2022-11-05T10:16:38.382Z,1012.6
2022-11-05T10:17:39.299Z,1012.6
2022-11-05T10:18:38.381Z,1012.6
2022-11-05T10:19:38.376Z,1012.6
2022-11-05T10:22:05.138Z,1012.6
2022-11-05T10:22:38.400Z,1012.6
2022-11-05T10:23:38.374Z,1012.6
2022-11-05T10:24:38.385Z,1012.7
2022-11-05T10:25:38.377Z,1012.7
2022-11-05T10:26:38.393Z,1012.6
2022-11-05T10:27:38.383Z,1012.6
2022-11-05T10:28:38.385Z,1012.6
2022-11-05T10:29:38.384Z,1012.6
2022-11-05T10:30:38.432Z,1012.6
2022-11-05T10:31:38.390Z,1012.6
2022-11-05T10:32:38.384Z,1012.6
2022-11-05T10:33:38.386Z,1012.6
2022-11-05T10:34:38.381Z,1012.6
2022-11-05T10:35:38.393Z,1012.6
2022-11-05T10:36:38.373Z,1012.6
2022-11-05T10:37:41.001Z,1012.7
2022-11-05T10:38:38.382Z,1012.7
2022-11-05T10:39:38.379Z,1012.6
2022-11-05T10:40:38.388Z,1012.7
2022-11-05T10:42:38.390Z,1012.7
2022-11-05T10:43:38.386Z,1012.7
2022-11-05T10:44:38.386Z,1012.7
2022-11-05T10:45:38.391Z,1012.7
2022-11-05T10:46:38.403Z,1012.7
2022-11-05T10:47:38.390Z,1012.7
2022-11-05T10:48:43.412Z,1012.7
2022-11-05T10:50:38.380Z,1012.7
2022-11-05T10:51:38.387Z,1012.7
2022-11-05T10:52:38.395Z,1012.7
2022-11-05T10:53:38.382Z,1012.8
2022-11-05T10:54:38.387Z,1012.7
2022-11-05T10:55:38.395Z,1012.6
2022-11-05T10:56:38.394Z,1012.7
2022-11-05T10:57:38.378Z,1012.6
2022-11-05T10:58:38.381Z,1012.7
2022-11-05T11:00:38.478Z,1012.6
2022-11-05T11:01:38.580Z,1012.6
2022-11-05T11:02:38.498Z,1012.6
2022-11-05T11:03:38.392Z,1012.6
2022-11-05T11:04:38.476Z,1012.7
2022-11-05T11:05:38.390Z,1012.7
2022-11-05T11:06:38.389Z,1012.7
2022-11-05T11:07:38.387Z,1012.8
2022-11-05T11:08:38.378Z,1012.7
2022-11-05T11:09:38.387Z,1012.8
2022-11-05T11:10:38.397Z,1012.8
2022-11-05T11:11:38.387Z,1012.7
2022-11-05T11:12:41.093Z,1012.6
2022-11-05T11:13:38.388Z,1012.7
2022-11-05T11:14:38.385Z,1012.6
2022-11-05T11:15:38.393Z,1012.6
2022-11-05T11:16:38.380Z,1012.7
2022-11-05T11:17:38.384Z,1012.7
2022-11-05T11:18:40.188Z,1012.7
2022-11-05T11:19:38.406Z,1012.7
2022-11-05T11:20:38.386Z,1012.6
2022-11-05T11:21:38.381Z,1012.7
2022-11-05T11:22:40.280Z,1012.7
2022-11-05T11:23:38.383Z,1012.7
2022-11-05T11:24:38.387Z,1012.6
2022-11-05T11:25:38.386Z,1012.7
2022-11-05T11:26:38.387Z,1012.6
2022-11-05T11:27:38.390Z,1012.7
2022-11-05T11:28:38.388Z,1012.6
2022-11-05T11:29:38.391Z,1012.7
2022-11-05T11:30:38.393Z,1012.7
2022-11-05T11:31:38.389Z,1012.7
2022-11-05T11:32:38.501Z,1012.7
2022-11-05T11:33:38.408Z,1012.7
2022-11-05T11:34:38.391Z,1012.7
2022-11-05T11:35:38.391Z,1012.8
2022-11-05T11:36:38.386Z,1012.7
2022-11-05T11:37:38.396Z,1012.8
2022-11-05T11:38:38.394Z,1012.8
2022-11-05T11:40:38.392Z,1012.8
2022-11-05T11:41:38.386Z,1012.8
2022-11-05T11:42:38.392Z,1012.8
2022-11-05T11:43:38.395Z,1012.8
2022-11-05T11:44:38.392Z,1012.7
2022-11-05T11:45:38.391Z,1012.8
2022-11-05T11:46:38.395Z,1012.8
2022-11-05T11:47:38.413Z,1012.8
2022-11-05T11:48:38.388Z,1012.8
2022-11-05T11:49:38.386Z,1012.8
2022-11-05T11:50:38.386Z,1012.8
2022-11-05T11:51:38.391Z,1012.8
2022-11-05T11:52:38.396Z,1012.7
2022-11-05T11:53:38.395Z,1012.7
2022-11-05T11:54:38.387Z,1012.7
2022-11-05T11:55:38.394Z,1012.7
2022-11-05T11:56:38.396Z,1012.7
2022-11-05T11:57:38.390Z,1012.7
2022-11-05T11:58:38.391Z,1012.7
2022-11-05T12:00:07.249Z,1012.7
2022-11-05T12:00:38.390Z,1012.7
2022-11-05T12:01:38.487Z,1012.7
2022-11-05T12:02:38.490Z,1012.7
2022-11-05T12:03:38.415Z,1012.7
2022-11-05T12:04:38.390Z,1012.8
2022-11-05T12:05:38.406Z,1012.7
2022-11-05T12:06:38.398Z,1012.7
2022-11-05T12:07:38.389Z,1012.6
2022-11-05T12:08:42.876Z,1012.7
2022-11-05T12:09:38.390Z,1012.7
2022-11-05T12:10:38.392Z,1012.6
2022-11-05T12:11:38.391Z,1012.7
2022-11-05T12:12:38.387Z,1012.6
2022-11-05T12:13:38.403Z,1012.7
2022-11-05T12:14:41.221Z,1012.6
2022-11-05T12:15:38.389Z,1012.6
2022-11-05T12:16:38.395Z,1012.6
2022-11-05T12:17:38.399Z,1012.6
2022-11-05T12:18:38.412Z,1012.6
2022-11-05T12:19:38.398Z,1012.6
2022-11-05T12:21:51.841Z,1012.7
2022-11-05T12:22:38.395Z,1012.6
2022-11-05T12:23:38.390Z,1012.6
2022-11-05T12:24:38.397Z,1012.6
2022-11-05T12:25:38.396Z,1012.6
2022-11-05T12:26:38.442Z,1012.6
2022-11-05T12:27:38.385Z,1012.6
2022-11-05T12:28:57.703Z,1012.6
2022-11-05T12:29:38.399Z,1012.6
2022-11-05T12:30:38.399Z,1012.6
2022-11-05T12:31:38.409Z,1012.6
2022-11-05T12:32:38.480Z,1012.5
2022-11-05T12:33:38.398Z,1012.6
2022-11-05T12:34:38.420Z,1012.6
2022-11-05T12:35:42.757Z,1012.6
2022-11-05T12:36:38.396Z,1012.7
2022-11-05T12:37:38.406Z,1012.7
2022-11-05T12:38:38.399Z,1012.7
2022-11-05T12:39:38.397Z,1012.7
2022-11-05T12:40:38.396Z,1012.6
2022-11-05T12:41:38.393Z,1012.6
2022-11-05T12:42:38.390Z,1012.6
2022-11-05T12:43:38.410Z,1012.6
2022-11-05T12:44:38.446Z,1012.6
2022-11-05T12:45:38.397Z,1012.5
2022-11-05T12:46:38.394Z,1012.6
2022-11-05T12:47:38.396Z,1012.6
2022-11-05T12:48:38.400Z,1012.5
2022-11-05T12:49:38.409Z,1012.5
2022-11-05T12:50:38.488Z,1012.5
2022-11-05T12:51:38.416Z,1012.5
2022-11-05T12:52:38.397Z,1012.5
2022-11-05T12:53:38.474Z,1012.4
2022-11-05T12:54:38.403Z,1012.4
2022-11-05T12:55:38.405Z,1012.4
2022-11-05T12:56:38.394Z,1012.4
2022-11-05T12:57:38.408Z,1012.5
2022-11-05T12:58:38.394Z,1012.4
2022-11-05T12:59:38.406Z,1012.4
2022-11-05T13:00:38.404Z,1012.4
2022-11-05T13:01:38.563Z,1012.4
2022-11-05T13:02:38.480Z,1012.4
2022-11-05T13:03:38.402Z,1012.4
2022-11-05T13:04:38.394Z,1012.3
2022-11-05T13:05:38.586Z,1012.4